createdAt,value
2018-06-12T00:00:57.333Z,61.10
2018-06-12T00:03:28.209Z,100.33
2018-06-12T00:05:59.377Z,80.47
2018-06-12T00:08:30.557Z,96.13
2018-06-12T00:11:01.615Z,90.60
2018-06-12T00:13:33.280Z,96.33
2018-06-12T00:16:04.373Z,85.55
2018-06-12T00:18:35.391Z,95.60
2018-06-12T00:21:06.613Z,96.57
2018-06-12T00:23:37.656Z,96.03
2018-06-12T00:26:08.669Z,98.80
2018-06-12T00:28:39.728Z,102.33
2018-06-12T00:31:10.668Z,95.65
2018-06-12T00:33:41.695Z,107.53
2018-06-12T00:36:12.548Z,89.67
2018-06-12T00:38:43.208Z,98.80
2018-06-12T00:41:14.145Z,100.07
2018-06-12T00:43:45.586Z,99.37
2018-06-12T00:46:17.311Z,103.38
2018-06-12T00:48:48.089Z,107.33
2018-06-12T00:51:19.242Z,100.53
2018-06-12T00:53:50.766Z,102.80
2018-06-12T00:56:38.305Z,100.47
2018-06-12T00:59:09.414Z,107.27
2018-06-12T01:01:40.635Z,92.00
2018-06-12T01:04:11.838Z,93.70
2018-06-12T01:06:42.785Z,104.27
2018-06-12T01:09:13.750Z,90.40
2018-06-12T01:11:44.730Z,78.57
2018-06-12T01:14:15.651Z,98.60
2018-06-12T01:16:46.855Z,89.47
2018-06-12T01:19:17.765Z,88.97
2018-06-12T01:21:48.235Z,86.73
2018-06-12T01:24:19.152Z,85.50
2018-06-12T01:26:51.622Z,88.47
2018-06-12T01:29:22.777Z,84.63
2018-06-12T01:31:53.942Z,87.97
2018-06-12T01:34:25.176Z,82.97
2018-06-12T01:36:56.064Z,83.20
2018-06-12T01:39:26.901Z,83.23
2018-06-12T01:41:57.922Z,83.97
2018-06-12T01:44:29.023Z,87.70
2018-06-12T01:47:00.410Z,75.73
2018-06-12T01:49:31.635Z,73.57
2018-06-12T01:52:02.617Z,88.67
2018-06-12T01:54:33.790Z,84.67
2018-06-12T01:57:04.344Z,80.20
2018-06-12T01:59:35.412Z,84.67
2018-06-12T02:02:06.557Z,86.78
2018-06-12T02:04:37.625Z,78.20
2018-06-12T02:07:08.583Z,84.37
2018-06-12T02:09:39.475Z,79.63
2018-06-12T02:12:10.636Z,73.97
2018-06-12T02:14:41.719Z,87.07
2018-06-12T02:17:12.912Z,76.90
2018-06-12T02:19:43.998Z,82.93
2018-06-12T02:22:16.141Z,86.57
2018-06-12T02:24:47.013Z,78.47
2018-06-12T02:27:17.918Z,82.63
2018-06-12T02:29:48.643Z,82.93
2018-06-12T02:32:19.741Z,79.33
2018-06-12T02:34:50.665Z,77.83
2018-06-12T02:37:21.690Z,75.63
2018-06-12T02:39:52.700Z,74.07
2018-06-12T02:42:23.830Z,72.53
2018-06-12T02:44:54.631Z,82.40
2018-06-12T02:47:25.795Z,77.30
2018-06-12T02:49:56.784Z,75.20
2018-06-12T02:52:27.992Z,72.10
2018-06-12T02:54:59.840Z,65.30
2018-06-12T02:57:30.985Z,74.73
2018-06-12T03:00:01.700Z,72.50
2018-06-12T03:02:32.683Z,70.37
2018-06-12T03:05:03.746Z,65.37
2018-06-12T03:07:34.762Z,75.47
2018-06-12T03:10:05.862Z,73.75
2018-06-12T03:12:36.948Z,74.13
2018-06-12T03:15:08.121Z,61.53
2018-06-12T03:17:39.060Z,73.63
2018-06-12T03:20:10.190Z,75.92
2018-06-12T03:22:41.221Z,71.73
2018-06-12T03:25:12.189Z,74.58
2018-06-12T03:27:42.997Z,72.60
2018-06-12T03:30:14.140Z,67.50
2018-06-12T03:32:45.240Z,70.33
2018-06-12T03:35:16.209Z,58.52
2018-06-12T03:37:48.303Z,65.80
2018-06-12T03:40:19.435Z,66.80
2018-06-12T03:42:50.377Z,61.40
2018-06-12T03:45:21.311Z,56.93
2018-06-12T03:47:52.282Z,54.93
2018-06-12T03:50:23.483Z,60.30
2018-06-12T03:52:54.619Z,60.70
2018-06-12T03:55:25.583Z,55.50
2018-06-12T03:57:56.726Z,55.73
2018-06-12T04:00:27.938Z,52.80
2018-06-12T04:03:00.050Z,58.37
2018-06-12T04:05:31.110Z,57.17
2018-06-12T04:08:02.023Z,64.37
2018-06-12T04:10:33.021Z,52.63
2018-06-12T04:13:04.174Z,53.77
2018-06-12T04:15:35.193Z,53.57
2018-06-12T04:18:06.156Z,57.37
2018-06-12T04:20:37.038Z,68.83
2018-06-12T04:23:08.099Z,65.43
2018-06-12T04:25:38.967Z,73.63
2018-06-12T04:28:10.099Z,80.10
2018-06-12T04:30:41.095Z,81.13
2018-06-12T04:33:12.282Z,83.50
2018-06-12T04:35:43.255Z,71.70
2018-06-12T04:38:14.333Z,91.80
2018-06-12T04:40:45.458Z,88.30
2018-06-12T04:43:16.565Z,97.50
2018-06-12T04:45:47.583Z,98.97
2018-06-12T04:48:18.724Z,108.93
2018-06-12T04:50:49.675Z,96.03
2018-06-12T04:53:20.739Z,73.20
2018-06-12T04:55:51.809Z,48.47
2018-06-12T04:58:22.982Z,52.10
2018-06-12T05:00:53.696Z,49.37
2018-06-12T05:03:24.204Z,38.43
2018-06-12T05:05:55.184Z,42.77
2018-06-12T05:08:29.651Z,47.97
2018-06-12T05:11:02.503Z,40.73
2018-06-12T05:13:33.703Z,39.00
2018-06-12T05:16:04.732Z,46.13
2018-06-12T05:18:35.907Z,40.33
2018-06-12T05:21:06.742Z,45.25
2018-06-12T05:23:37.268Z,45.00
2018-06-12T05:26:08.844Z,41.85
2018-06-12T05:28:39.529Z,45.87
2018-06-12T05:31:10.533Z,49.83
2018-06-12T05:33:41.622Z,40.73
2018-06-12T05:36:12.272Z,45.40
2018-06-12T05:38:43.293Z,45.47
2018-06-12T05:41:14.431Z,46.68
2018-06-12T05:43:45.409Z,51.80
2018-06-12T05:46:16.307Z,58.10
2018-06-12T05:48:47.475Z,64.50
2018-06-12T05:51:18.414Z,51.57
2018-06-12T05:53:50.632Z,53.17
2018-06-12T05:56:21.609Z,47.60
2018-06-12T05:58:52.689Z,55.00
2018-06-12T06:01:23.929Z,57.57
2018-06-12T06:03:55.014Z,53.13
2018-06-12T06:06:26.370Z,52.33
2018-06-12T06:08:57.405Z,46.37
2018-06-12T06:11:28.571Z,47.30
2018-06-12T06:14:00.319Z,50.90
2018-06-12T06:16:31.452Z,49.60
2018-06-12T06:19:03.591Z,48.87
2018-06-12T06:21:34.601Z,46.07
2018-06-12T06:24:05.786Z,43.93
2018-06-12T06:26:36.880Z,43.63
2018-06-12T06:29:08.157Z,44.73
2018-06-12T06:31:39.543Z,46.40
2018-06-12T06:34:10.742Z,54.98
2018-06-12T06:36:41.229Z,56.83
2018-06-12T06:39:12.089Z,61.60
2018-06-12T06:41:43.107Z,54.50
2018-06-12T06:44:14.310Z,50.00
2018-06-12T06:46:45.434Z,51.40
2018-06-12T06:49:18.079Z,53.92
2018-06-12T06:51:49.065Z,51.27
2018-06-12T06:54:21.064Z,47.23
2018-06-12T06:56:51.937Z,51.80
2018-06-12T06:59:23.114Z,50.63
2018-06-12T07:01:54.044Z,50.20
2018-06-12T07:04:25.231Z,52.27
2018-06-12T07:06:56.403Z,55.30
2018-06-12T07:09:27.511Z,50.30
2018-06-12T07:11:58.476Z,49.37
2018-06-12T07:14:30.094Z,43.57
2018-06-12T07:17:00.926Z,45.97
2018-06-12T07:19:32.177Z,40.37
2018-06-12T07:22:03.431Z,44.63
2018-06-12T07:24:34.681Z,48.37
2018-06-12T07:27:05.787Z,36.90
2018-06-12T07:29:36.722Z,37.60
2018-06-12T07:32:07.911Z,38.87
2018-06-12T07:34:38.985Z,41.93
2018-06-12T07:37:10.073Z,41.40
2018-06-12T07:39:41.183Z,40.27
2018-06-12T07:42:12.153Z,45.17
2018-06-12T07:44:43.164Z,41.20
2018-06-12T07:47:13.842Z,44.63
2018-06-12T07:49:44.880Z,43.77
2018-06-12T07:52:15.793Z,45.23
2018-06-12T07:54:46.818Z,44.67
2018-06-12T07:57:18.025Z,48.17
2018-06-12T07:59:49.152Z,43.90
2018-06-12T08:02:20.289Z,48.63
2018-06-12T08:04:51.439Z,41.40
2018-06-12T08:07:22.431Z,42.77
2018-06-12T08:09:53.482Z,39.73
2018-06-12T08:12:24.561Z,41.87
2018-06-12T08:14:55.690Z,43.50
2018-06-12T08:17:26.875Z,49.67
2018-06-12T08:19:58.026Z,45.73
2018-06-12T08:22:29.102Z,40.33
2018-06-12T08:25:00.666Z,38.97
2018-06-12T08:27:31.717Z,42.30
2018-06-12T08:30:03.014Z,38.07
2018-06-12T08:32:33.888Z,40.30
2018-06-12T08:35:05.205Z,34.18
2018-06-12T08:37:36.314Z,41.13
2018-06-12T08:40:07.665Z,39.63
2018-06-12T08:42:38.669Z,38.93
2018-06-12T08:45:10.803Z,41.63
2018-06-12T08:47:41.900Z,45.08
2018-06-12T08:50:13.127Z,55.60
2018-06-12T08:52:44.346Z,51.00
2018-06-12T08:55:15.450Z,47.63
2018-06-12T08:57:46.414Z,40.70
2018-06-12T09:00:17.605Z,42.35
2018-06-12T09:02:48.213Z,51.57
2018-06-12T09:05:19.301Z,48.77
2018-06-12T09:07:50.888Z,44.67
2018-06-12T09:10:21.822Z,43.53
2018-06-12T09:12:52.924Z,43.37
2018-06-12T09:15:25.097Z,50.90
2018-06-12T09:17:57.248Z,47.07
2018-06-12T09:20:28.356Z,41.73
2018-06-12T09:22:59.330Z,45.10
2018-06-12T09:25:30.281Z,44.23
2018-06-12T09:28:01.092Z,38.10
2018-06-12T09:30:32.154Z,39.53
2018-06-12T09:33:03.203Z,40.17
2018-06-12T09:35:34.271Z,40.60
2018-06-12T09:38:05.477Z,40.50
2018-06-12T09:40:36.576Z,38.83
2018-06-12T09:43:07.695Z,38.75
2018-06-12T09:45:38.842Z,41.40
2018-06-12T09:48:09.885Z,43.70
2018-06-12T09:50:41.133Z,41.20
2018-06-12T09:53:12.204Z,55.20
2018-06-12T09:55:43.302Z,51.33
2018-06-12T09:58:14.524Z,49.18
2018-06-12T10:00:50.559Z,48.33
2018-06-12T10:03:21.635Z,47.40
2018-06-12T10:05:52.595Z,37.40
2018-06-12T10:08:23.555Z,39.67
2018-06-12T10:10:54.607Z,43.50
2018-06-12T10:13:25.537Z,47.60
2018-06-12T10:15:56.627Z,46.90
2018-06-12T10:18:28.191Z,45.37
2018-06-12T10:20:59.266Z,37.27
2018-06-12T10:23:30.288Z,30.77
2018-06-12T10:26:01.319Z,25.20
2018-06-12T10:28:32.431Z,25.40
2018-06-12T10:31:03.530Z,28.47
2018-06-12T10:33:34.645Z,25.53
2018-06-12T10:36:05.765Z,24.12
2018-06-12T10:38:36.876Z,16.00
2018-06-12T10:41:08.988Z,16.32
2018-06-12T10:43:39.962Z,25.83
2018-06-12T10:46:10.871Z,17.70
2018-06-12T10:48:42.032Z,18.70
2018-06-12T10:51:13.182Z,13.67
2018-06-12T10:53:44.419Z,12.37
2018-06-12T10:56:15.556Z,11.50
2018-06-12T10:58:46.526Z,10.30
2018-06-12T11:01:17.875Z,11.55
2018-06-12T11:03:49.035Z,10.57
2018-06-12T11:06:20.236Z,9.40
2018-06-12T11:08:51.350Z,9.73
2018-06-12T11:11:22.487Z,10.43
2018-06-12T11:13:54.255Z,10.67
2018-06-12T11:16:25.477Z,11.90
2018-06-12T11:18:56.507Z,9.50
2018-06-12T11:21:27.919Z,9.97
2018-06-12T11:23:59.035Z,10.63
2018-06-12T11:26:29.845Z,10.73
2018-06-12T11:29:01.038Z,10.60
2018-06-12T11:31:32.701Z,12.60
2018-06-12T11:34:03.855Z,9.43
2018-06-12T11:36:34.944Z,11.50
2018-06-12T11:39:08.314Z,12.35
2018-06-12T11:41:39.379Z,17.35
2018-06-12T11:44:10.320Z,15.15
2018-06-12T11:46:41.373Z,17.00
2018-06-12T11:49:13.304Z,18.42
2018-06-12T11:51:44.576Z,19.60
2018-06-12T11:54:16.837Z,22.30
2018-06-12T11:56:47.935Z,27.97
2018-06-12T11:59:19.023Z,19.60
2018-06-12T12:01:50.629Z,22.00
2018-06-12T12:04:21.696Z,21.60
2018-06-12T12:06:52.925Z,18.77
2018-06-12T12:09:24.011Z,18.83
2018-06-12T12:11:55.265Z,17.70
2018-06-12T12:14:26.396Z,18.63
2018-06-12T12:16:57.411Z,19.93
2018-06-12T12:19:28.551Z,20.43
2018-06-12T12:22:00.250Z,19.83
2018-06-12T12:24:31.304Z,25.20
2018-06-12T12:27:02.361Z,20.90
2018-06-12T12:29:33.505Z,24.57
2018-06-12T12:32:04.683Z,22.53
2018-06-12T12:34:35.776Z,20.13
2018-06-12T12:37:07.026Z,20.55
2018-06-12T12:39:37.975Z,22.50
2018-06-12T12:42:10.489Z,18.50
2018-06-12T12:44:41.687Z,17.53
2018-06-12T12:47:12.862Z,17.23
2018-06-12T12:49:43.927Z,16.77
2018-06-12T12:52:15.106Z,17.60
2018-06-12T12:54:47.003Z,19.33
2018-06-12T12:57:18.092Z,26.30
2018-06-12T12:59:48.898Z,18.87
2018-06-12T13:02:21.258Z,23.47
2018-06-12T13:04:52.536Z,21.83
2018-06-12T13:07:24.082Z,22.53
2018-06-12T13:09:55.184Z,24.53
2018-06-12T13:12:26.228Z,16.73
2018-06-12T13:14:57.335Z,20.87
2018-06-12T13:17:28.453Z,24.70
2018-06-12T13:19:59.709Z,20.87
2018-06-12T13:22:30.790Z,21.70
2018-06-12T13:25:02.046Z,18.97
2018-06-12T13:27:33.849Z,17.07
2018-06-12T13:30:05.013Z,18.77
2018-06-12T13:32:35.900Z,15.27
2018-06-12T13:35:07.096Z,19.15
2018-06-12T13:37:39.079Z,18.17
2018-06-12T13:40:10.486Z,18.17
2018-06-12T13:42:41.579Z,18.97
2018-06-12T13:45:13.143Z,19.33
2018-06-12T13:47:44.321Z,20.60
2018-06-12T13:50:15.435Z,19.80
2018-06-12T13:52:46.551Z,19.40
2018-06-12T13:55:17.574Z,18.10
2018-06-12T13:57:48.515Z,21.30
2018-06-12T14:00:19.536Z,24.73
2018-06-12T14:02:50.389Z,23.23
2018-06-12T14:05:21.445Z,20.37
2018-06-12T14:07:52.559Z,24.00
2018-06-12T14:10:24.236Z,20.70
2018-06-12T14:12:55.129Z,21.17
2018-06-12T14:15:26.220Z,21.20
2018-06-12T14:17:57.307Z,19.87
2018-06-12T14:20:28.525Z,24.30
2018-06-12T14:22:59.718Z,25.03
2018-06-12T14:25:30.921Z,26.07
2018-06-12T14:28:02.932Z,27.37
2018-06-12T14:30:35.250Z,27.30
2018-06-12T14:33:06.777Z,29.20
2018-06-12T14:35:37.972Z,26.30
2018-06-12T14:38:11.140Z,26.00
2018-06-12T14:40:43.335Z,27.50
2018-06-12T14:43:14.664Z,26.68
2018-06-12T14:45:46.059Z,26.37
2018-06-12T14:48:17.056Z,22.43
2018-06-12T14:50:48.105Z,28.40
2018-06-12T14:53:19.148Z,28.57
2018-06-12T14:55:50.593Z,27.10
2018-06-12T14:58:21.804Z,22.20
2018-06-12T15:00:52.807Z,24.30
2018-06-12T15:03:24.023Z,25.40
2018-06-12T15:05:54.833Z,24.93
2018-06-12T15:08:27.058Z,24.47
2018-06-12T15:10:58.047Z,23.33
2018-06-12T15:13:29.068Z,25.27
2018-06-12T15:16:00.181Z,31.13
2018-06-12T15:18:31.452Z,27.63
2018-06-12T15:21:02.577Z,26.20
2018-06-12T15:23:34.473Z,31.57
2018-06-12T15:26:05.174Z,25.67
2018-06-12T15:28:35.728Z,25.87
2018-06-12T15:31:07.006Z,30.30
2018-06-12T15:33:38.258Z,28.47
2018-06-12T15:36:09.578Z,27.20
2018-06-12T15:38:40.874Z,29.33
2018-06-12T15:41:12.047Z,29.53
2018-06-12T15:43:43.294Z,25.83
2018-06-12T15:46:13.988Z,27.00
2018-06-12T15:48:45.330Z,29.83
2018-06-12T15:51:16.464Z,29.25
2018-06-12T15:53:47.628Z,28.40
2018-06-12T15:56:19.156Z,33.27
2018-06-12T15:58:50.214Z,28.83
2018-06-12T16:01:21.496Z,29.57
2018-06-12T16:03:52.617Z,31.80
2018-06-12T16:06:23.871Z,31.20
2018-06-12T16:08:55.001Z,38.67
2018-06-12T16:11:27.097Z,30.43
2018-06-12T16:13:58.198Z,29.57
2018-06-12T16:16:29.313Z,27.93
2018-06-12T16:19:00.742Z,25.50
2018-06-12T16:21:32.080Z,24.40
2018-06-12T16:24:03.276Z,28.03
2018-06-12T16:26:34.549Z,26.20
2018-06-12T16:29:05.519Z,24.43
2018-06-12T16:31:37.359Z,26.07
2018-06-12T16:34:08.420Z,23.30
2018-06-12T16:36:39.617Z,22.22
2018-06-12T16:39:10.757Z,23.87
2018-06-12T16:41:41.981Z,28.38
2018-06-12T16:44:13.047Z,29.63
2018-06-12T16:46:44.267Z,25.10
2018-06-12T16:49:15.426Z,29.00
2018-06-12T16:51:46.459Z,25.57
2018-06-12T16:54:17.476Z,26.30
2018-06-12T16:56:49.179Z,27.40
2018-06-12T16:59:20.159Z,26.43
2018-06-12T17:01:51.356Z,18.60
2018-06-12T17:04:22.790Z,30.10
2018-06-12T17:06:54.065Z,16.20
2018-06-12T17:09:25.204Z,19.67
2018-06-12T17:11:56.341Z,19.10
2018-06-12T17:14:27.509Z,21.27
2018-06-12T17:16:58.694Z,21.40
2018-06-12T17:19:30.646Z,23.30
2018-06-12T17:22:01.855Z,31.33
2018-06-12T17:24:32.992Z,18.57
2018-06-12T17:27:04.232Z,21.27
2018-06-12T17:29:35.578Z,17.90
2018-06-12T17:32:06.964Z,17.73
2018-06-12T17:34:38.055Z,19.52
2018-06-12T17:37:09.316Z,21.57
2018-06-12T17:39:40.581Z,18.80
2018-06-12T17:42:13.053Z,17.73
2018-06-12T17:44:44.142Z,17.00
2018-06-12T17:47:15.404Z,18.00
2018-06-12T17:49:46.488Z,20.40
2018-06-12T17:52:17.703Z,25.50
2018-06-12T17:54:49.779Z,16.53
2018-06-12T17:57:21.356Z,16.57
2018-06-12T17:59:52.470Z,25.03
2018-06-12T18:02:24.525Z,16.00
2018-06-12T18:04:55.958Z,14.30
2018-06-12T18:07:26.805Z,15.13
2018-06-12T18:09:57.930Z,18.20
2018-06-12T18:12:29.456Z,14.75
2018-06-12T18:15:01.034Z,13.23
2018-06-12T18:17:33.746Z,13.60
2018-06-12T18:20:04.910Z,13.90
2018-06-12T18:22:36.209Z,13.48
2018-06-12T18:25:07.701Z,14.50
2018-06-12T18:27:39.052Z,12.93
2018-06-12T18:30:10.245Z,11.03
2018-06-12T18:32:41.771Z,18.87
2018-06-12T18:35:12.821Z,13.10
2018-06-12T18:37:44.018Z,15.83
2018-06-12T18:40:15.237Z,14.57
2018-06-12T18:42:46.427Z,13.40
2018-06-12T18:45:17.603Z,14.10
2018-06-12T18:47:48.801Z,11.37
2018-06-12T18:50:20.038Z,15.87
2018-06-12T18:52:51.233Z,12.37
2018-06-12T18:55:22.362Z,13.47
2018-06-12T18:57:54.986Z,13.95
2018-06-12T19:00:26.284Z,13.60
2018-06-12T19:02:57.262Z,12.63
2018-06-12T19:05:28.166Z,11.77
2018-06-12T19:07:59.118Z,11.10
2018-06-12T19:10:30.010Z,17.00
2018-06-12T19:13:00.935Z,12.63
2018-06-12T19:15:31.881Z,10.35
2018-06-12T19:18:02.736Z,12.50
2018-06-12T19:20:33.632Z,11.18
2018-06-12T19:23:04.685Z,16.70
2018-06-12T19:25:35.622Z,10.50
2018-06-12T19:28:06.581Z,15.10
2018-06-12T19:30:37.737Z,9.08
2018-06-12T19:33:23.157Z,14.67
2018-06-12T19:35:53.942Z,15.87
2018-06-12T19:38:24.892Z,9.63
2018-06-12T19:40:55.761Z,13.80
2018-06-12T19:43:26.878Z,11.50
2018-06-12T19:45:57.769Z,11.03
2018-06-12T19:48:28.716Z,10.90
2018-06-12T19:50:59.803Z,9.53
2018-06-12T19:53:31.907Z,12.65
2018-06-12T19:56:03.286Z,15.53
2018-06-12T19:58:34.190Z,11.75
2018-06-12T20:01:05.082Z,15.60
2018-06-12T20:03:36.164Z,8.63
2018-06-12T20:06:07.486Z,10.10
2018-06-12T20:08:40.660Z,11.48
2018-06-12T20:11:11.483Z,14.17
2018-06-12T20:13:42.789Z,16.73
2018-06-12T20:16:13.743Z,12.70
2018-06-12T20:18:44.549Z,14.93
2018-06-12T20:21:15.807Z,10.33
2018-06-12T20:23:48.209Z,13.70
2018-06-12T20:26:19.217Z,13.27
2018-06-12T20:28:50.451Z,13.13
2018-06-12T20:31:21.567Z,11.53
2018-06-12T20:33:53.817Z,9.33
2018-06-12T20:36:24.814Z,14.47
2018-06-12T20:38:56.010Z,7.97
2018-06-12T20:41:27.021Z,7.23
2018-06-12T20:43:57.848Z,10.27
2018-06-12T20:46:28.793Z,13.75
2018-06-12T20:48:59.628Z,8.83
2018-06-12T20:51:30.849Z,16.10
2018-06-12T20:54:01.951Z,12.30
2018-06-12T20:56:32.798Z,10.78
2018-06-12T20:59:03.667Z,15.70
2018-06-12T21:01:34.701Z,15.30
2018-06-12T21:04:06.129Z,10.63
2018-06-12T21:06:36.960Z,12.73
2018-06-12T21:09:08.068Z,12.83
2018-06-12T21:11:38.750Z,9.23
2018-06-12T21:14:09.889Z,9.97
2018-06-12T21:16:41.068Z,9.03
2018-06-12T21:19:12.142Z,11.80
2018-06-12T21:21:42.614Z,14.50
2018-06-12T21:24:14.039Z,10.43
2018-06-12T21:26:45.233Z,13.17
2018-06-12T21:29:16.195Z,12.20
2018-06-12T21:31:47.182Z,8.13
2018-06-12T21:34:19.120Z,10.37
2018-06-12T21:36:53.102Z,14.87
2018-06-12T21:39:24.538Z,7.70
2018-06-12T21:41:55.364Z,13.00
2018-06-12T21:44:26.106Z,11.23
2018-06-12T21:46:56.899Z,10.23
2018-06-12T21:49:27.794Z,13.53
2018-06-12T21:51:58.609Z,10.30
2018-06-12T21:54:29.685Z,7.80
2018-06-12T21:57:00.786Z,6.40
2018-06-12T21:59:31.564Z,12.05
2018-06-12T22:02:02.378Z,10.40
2018-06-12T22:04:33.141Z,9.75
2018-06-12T22:07:03.953Z,10.37
2018-06-12T22:09:35.303Z,10.13
2018-06-12T22:12:06.444Z,14.70
2018-06-12T22:14:37.591Z,9.95
2018-06-12T22:17:08.337Z,10.93
2018-06-12T22:19:39.988Z,8.63
2018-06-12T22:22:10.519Z,12.50
2018-06-12T22:24:41.033Z,10.90
2018-06-12T22:27:11.515Z,11.40
2018-06-12T22:29:43.411Z,11.90
2018-06-12T22:32:14.150Z,9.53
2018-06-12T22:34:46.190Z,12.73
2018-06-12T22:37:17.206Z,16.47
2018-06-12T22:39:47.988Z,10.10
2018-06-12T22:42:18.971Z,11.33
2018-06-12T22:44:50.027Z,10.00
2018-06-12T22:47:20.940Z,11.73
2018-06-12T22:49:51.889Z,14.67
2018-06-12T22:52:22.609Z,8.57
2018-06-12T22:54:53.571Z,7.80
2018-06-12T22:57:24.857Z,11.10
2018-06-12T22:59:55.874Z,14.50
2018-06-12T23:02:27.070Z,9.97
2018-06-12T23:04:58.186Z,11.97
2018-06-12T23:07:29.286Z,9.90
2018-06-12T23:10:01.480Z,12.60
2018-06-12T23:12:32.577Z,15.43
2018-06-12T23:15:03.814Z,8.47
2018-06-12T23:17:34.896Z,10.43
2018-06-12T23:20:23.502Z,8.50
2018-06-12T23:22:54.573Z,9.23
2018-06-12T23:25:25.731Z,10.53
2018-06-12T23:27:56.774Z,11.33
2018-06-12T23:30:28.680Z,10.27
2018-06-12T23:32:59.697Z,17.13
2018-06-12T23:35:32.509Z,7.50
2018-06-12T23:38:03.597Z,12.00
2018-06-12T23:40:34.500Z,8.20
2018-06-12T23:43:05.440Z,14.73
2018-06-12T23:45:36.133Z,11.60
2018-06-12T23:48:07.255Z,8.27
2018-06-12T23:50:39.135Z,19.02
2018-06-12T23:53:10.192Z,13.30
2018-06-12T23:55:41.265Z,10.87
2018-06-12T23:58:12.394Z,11.10
